createdAt,value
2023-11-05T00:00:57.441Z,96966.91
2023-11-05T00:03:00.166Z,96975.47
2023-11-05T00:05:04.009Z,96974.69
2023-11-05T00:07:08.556Z,96979.75
2023-11-05T00:09:12.205Z,96979.75
2023-11-05T00:11:16.551Z,96983.03
2023-11-05T00:13:21.692Z,96996.03
2023-11-05T00:15:24.287Z,96993.38
2023-11-05T00:17:27.969Z,96993.38
2023-11-05T00:19:31.689Z,96992.41
2023-11-05T00:21:35.954Z,96997.66
2023-11-05T00:23:39.589Z,96998.47
2023-11-05T00:25:43.248Z,96996.03
2023-11-05T00:27:47.419Z,96996.84
2023-11-05T00:29:51.501Z,97006.56
2023-11-05T00:31:55.306Z,97009.19
2023-11-05T00:33:58.991Z,97007.41
2023-11-05T00:36:02.744Z,97010.84
2023-11-05T00:38:06.376Z,97004.59
2023-11-05T00:40:11.393Z,97009.69
2023-11-05T00:42:14.002Z,97019.41
2023-11-05T00:44:17.719Z,97005.22
2023-11-05T00:46:22.809Z,97007.84
2023-11-05T00:48:26.529Z,97012.13
2023-11-05T00:50:30.195Z,97016.41
2023-11-05T00:52:33.990Z,97019.41
2023-11-05T00:54:37.520Z,97021.19
2023-11-05T00:56:41.161Z,97022.34
2023-11-05T00:58:46.159Z,97019.91
2023-11-05T01:00:49.632Z,97026.16
2023-11-05T01:02:54.845Z,97036.69
2023-11-05T01:04:58.748Z,97027.34
2023-11-05T01:07:02.375Z,97035.25
2023-11-05T01:09:07.420Z,97032.59
2023-11-05T01:11:11.486Z,97038.03
2023-11-05T01:13:15.330Z,97034.56
2023-11-05T01:15:17.885Z,97040.66
2023-11-05T01:17:22.912Z,97035.56
2023-11-05T01:19:29.319Z,97040.19
2023-11-05T01:21:32.975Z,97041.19
2023-11-05T01:23:36.596Z,97048.91
2023-11-05T01:25:40.289Z,97047.25
2023-11-05T01:27:42.841Z,97054.50
2023-11-05T01:29:46.614Z,97057.97
2023-11-05T01:31:50.391Z,97065.06
2023-11-05T01:33:54.550Z,97062.59
2023-11-05T01:35:59.743Z,97068.84
2023-11-05T01:38:02.260Z,97069.50
2023-11-05T01:40:07.391Z,97074.78
2023-11-05T01:42:11.255Z,97075.59
2023-11-05T01:44:14.972Z,97081.03
2023-11-05T01:46:19.039Z,97083.66
2023-11-05T01:48:23.089Z,97079.03
2023-11-05T01:50:27.298Z,97087.75
2023-11-05T01:52:32.341Z,97098.47
2023-11-05T01:54:34.833Z,97099.28
2023-11-05T01:56:38.762Z,97094.34
2023-11-05T01:58:42.307Z,97096.16
2023-11-05T02:00:46.744Z,97105.88
2023-11-05T02:02:50.642Z,97101.59
2023-11-05T02:04:54.585Z,97105.38
2023-11-05T02:06:58.377Z,97112.28
2023-11-05T02:09:04.480Z,97111.00
2023-11-05T02:11:08.668Z,97112.31
2023-11-05T02:13:12.706Z,97111.81
2023-11-05T02:15:17.138Z,97120.06
2023-11-05T02:17:21.341Z,97119.56
2023-11-05T02:19:24.188Z,97133.06
2023-11-05T02:21:29.645Z,97131.75
2023-11-05T02:23:35.281Z,97134.88
2023-11-05T02:25:39.034Z,97139.66
2023-11-05T02:27:42.695Z,97144.28
2023-11-05T02:29:49.402Z,97150.69
2023-11-05T02:31:52.040Z,97153.47
2023-11-05T02:33:55.708Z,97157.09
2023-11-05T02:35:59.640Z,97156.59
2023-11-05T02:38:03.213Z,97166.31
2023-11-05T02:40:09.854Z,97158.75
2023-11-05T02:42:13.970Z,97163.34
2023-11-05T02:44:17.871Z,97168.09
2023-11-05T02:46:21.547Z,97160.72
2023-11-05T02:48:25.329Z,97171.56
2023-11-05T02:50:29.142Z,97170.06
2023-11-05T02:52:32.780Z,97173.84
2023-11-05T02:54:36.432Z,97171.38
2023-11-05T02:56:41.518Z,97173.34
2023-11-05T02:58:45.063Z,97170.88
2023-11-05T03:00:47.709Z,97176.47
2023-11-05T03:02:51.943Z,97175.66
2023-11-05T03:04:59.518Z,97175.16
2023-11-05T03:07:03.774Z,97178.75
2023-11-05T03:09:07.687Z,97182.34
2023-11-05T03:11:10.822Z,97186.97
2023-11-05T03:13:16.035Z,97183.38
2023-11-05T03:15:19.316Z,97194.06
2023-11-05T03:17:23.134Z,97197.50
2023-11-05T03:19:27.209Z,97196.81
2023-11-05T03:21:32.734Z,97193.53
2023-11-05T03:23:36.930Z,97204.06
2023-11-05T03:25:42.192Z,97203.25
2023-11-05T03:27:45.830Z,97204.06
2023-11-05T03:29:51.067Z,97205.72
2023-11-05T03:31:54.964Z,97207.34
2023-11-05T03:33:58.745Z,97207.34
2023-11-05T03:36:02.510Z,97209.66
2023-11-05T03:38:06.253Z,97211.97
2023-11-05T03:40:10.371Z,97214.94
2023-11-05T03:42:14.679Z,97217.41
2023-11-05T03:44:17.144Z,97210.84
2023-11-05T03:46:22.266Z,97216.56
2023-11-05T03:48:26.721Z,97213.47
2023-11-05T03:50:30.608Z,97217.59
2023-11-05T03:52:34.331Z,97218.41
2023-11-05T03:54:38.021Z,97226.13
2023-11-05T03:56:41.712Z,97234.03
2023-11-05T03:58:45.491Z,97225.16
2023-11-05T04:00:49.243Z,97229.78
2023-11-05T04:02:54.576Z,97240.44
2023-11-05T04:04:58.182Z,97241.44
2023-11-05T04:07:04.906Z,97242.25
2023-11-05T04:09:08.650Z,97250.81
2023-11-05T04:11:12.541Z,97248.81
2023-11-05T04:13:16.130Z,97251.28
2023-11-05T04:15:19.938Z,97251.13
2023-11-05T04:17:22.757Z,97251.13
2023-11-05T04:19:27.980Z,97254.44
2023-11-05T04:21:31.223Z,97252.78
2023-11-05T04:23:35.782Z,97254.44
2023-11-05T04:25:39.789Z,97266.63
2023-11-05T04:27:43.550Z,97260.19
2023-11-05T04:29:47.327Z,97266.13
2023-11-05T04:31:51.118Z,97267.59
2023-11-05T04:33:54.649Z,97261.19
2023-11-05T04:35:58.809Z,97264.47
2023-11-05T04:38:02.392Z,97272.03
2023-11-05T04:40:07.789Z,97262.19
2023-11-05T04:42:12.286Z,97269.91
2023-11-05T04:44:16.059Z,97269.91
2023-11-05T04:46:19.784Z,97278.47
2023-11-05T04:48:23.591Z,97279.28
2023-11-05T04:50:27.302Z,97282.75
2023-11-05T04:52:32.509Z,97282.75
2023-11-05T04:54:35.802Z,97287.19
2023-11-05T04:56:40.118Z,97283.75
2023-11-05T04:58:43.812Z,97293.13
2023-11-05T05:00:47.562Z,97293.13
2023-11-05T05:02:51.422Z,97300.69
2023-11-05T05:04:55.240Z,97303.16
2023-11-05T05:06:59.101Z,97306.31
2023-11-05T05:09:04.493Z,97302.66
2023-11-05T05:11:08.551Z,97306.78
2023-11-05T05:13:12.366Z,97309.41
2023-11-05T05:15:16.344Z,97309.25
2023-11-05T05:17:20.431Z,97317.97
2023-11-05T05:19:23.977Z,97314.34
2023-11-05T05:21:27.757Z,97323.72
2023-11-05T05:23:31.361Z,97322.91
2023-11-05T05:25:36.302Z,97326.19
2023-11-05T05:27:39.964Z,97322.41
2023-11-05T05:29:43.756Z,97326.69
2023-11-05T05:31:47.387Z,97321.28
2023-11-05T05:33:51.180Z,97329.84
2023-11-05T05:35:54.670Z,97327.84
2023-11-05T05:37:58.395Z,97331.16
2023-11-05T05:40:02.146Z,97338.91
2023-11-05T05:42:07.695Z,97337.06
2023-11-05T05:44:11.255Z,97345.81
2023-11-05T05:46:17.179Z,97344.81
2023-11-05T05:48:21.113Z,97351.72
2023-11-05T05:50:24.795Z,97349.94
2023-11-05T05:52:28.487Z,97358.81
2023-11-05T05:54:32.754Z,97367.34
2023-11-05T05:56:36.430Z,97371.00
2023-11-05T05:58:43.412Z,97372.63
2023-11-05T06:00:46.960Z,97379.53
2023-11-05T06:02:51.977Z,97376.91
2023-11-05T06:04:55.606Z,97381.19
2023-11-05T06:06:58.312Z,97393.38
2023-11-05T06:09:01.790Z,97392.38
2023-11-05T06:11:05.957Z,97392.22
2023-11-05T06:13:09.950Z,97398.16
2023-11-05T06:15:15.297Z,97396.34
2023-11-05T06:17:19.462Z,97400.63
2023-11-05T06:19:23.483Z,97403.25
2023-11-05T06:21:27.148Z,97406.72
2023-11-05T06:23:29.738Z,97414.47
2023-11-05T06:25:33.508Z,97409.84
2023-11-05T06:27:38.585Z,97414.31
2023-11-05T06:29:42.314Z,97419.56
2023-11-05T06:31:47.350Z,97420.38
2023-11-05T06:33:51.027Z,97423.69
2023-11-05T06:35:54.747Z,97425.31
2023-11-05T06:37:58.401Z,97431.75
2023-11-05T06:40:02.524Z,97428.13
2023-11-05T06:42:06.458Z,97437.00
2023-11-05T06:44:10.229Z,97431.75
2023-11-05T06:46:13.864Z,97440.31
2023-11-05T06:48:19.680Z,97447.25
2023-11-05T06:50:23.329Z,97456.94
2023-11-05T06:52:27.933Z,97450.03
2023-11-05T06:54:31.616Z,97466.81
2023-11-05T06:56:35.704Z,97471.94
2023-11-05T06:58:39.769Z,97470.09
2023-11-05T07:00:43.431Z,97473.59
2023-11-05T07:02:47.563Z,97476.06
2023-11-05T07:04:52.820Z,97478.69
2023-11-05T07:06:56.616Z,97480.47
2023-11-05T07:09:00.538Z,97481.97
2023-11-05T07:11:05.024Z,97488.72
2023-11-05T07:13:08.941Z,97488.72
2023-11-05T07:15:13.000Z,97495.66
2023-11-05T07:17:16.862Z,97499.25
2023-11-05T07:19:21.191Z,97500.09
2023-11-05T07:21:26.284Z,97501.72
2023-11-05T07:23:29.650Z,97511.63
2023-11-05T07:25:32.499Z,97507.34
2023-11-05T07:27:36.198Z,97510.78
2023-11-05T07:29:39.882Z,97510.13
2023-11-05T07:31:43.640Z,97516.22
2023-11-05T07:33:48.638Z,97521.47
2023-11-05T07:35:51.132Z,97529.22
2023-11-05T07:37:56.917Z,97528.41
2023-11-05T07:40:00.631Z,97536.31
2023-11-05T07:42:04.430Z,97535.34
2023-11-05T07:44:10.699Z,97534.34
2023-11-05T07:46:14.402Z,97545.72
2023-11-05T07:48:18.109Z,97553.63
2023-11-05T07:50:23.786Z,97544.91
2023-11-05T07:52:28.230Z,97551.31
2023-11-05T07:54:34.420Z,97553.09
2023-11-05T07:56:38.116Z,97557.38
2023-11-05T07:58:42.853Z,97553.78
2023-11-05T08:00:47.988Z,97558.06
2023-11-05T08:02:51.637Z,97561.69
2023-11-05T08:04:55.190Z,97556.56
2023-11-05T08:06:59.079Z,97572.22
2023-11-05T08:09:02.878Z,97566.09
2023-11-05T08:11:08.204Z,97568.59
2023-11-05T08:13:11.255Z,97576.34
2023-11-05T08:15:15.306Z,97577.97
2023-11-05T08:17:19.040Z,97581.13
2023-11-05T08:19:22.652Z,97579.81
2023-11-05T08:21:26.418Z,97581.16
2023-11-05T08:23:30.118Z,97585.13
2023-11-05T08:25:33.633Z,97587.44
2023-11-05T08:27:38.803Z,97596.66
2023-11-05T08:29:42.630Z,97603.94
2023-11-05T08:31:47.108Z,97599.84
2023-11-05T08:33:50.924Z,97599.03
2023-11-05T08:35:55.557Z,97597.56
2023-11-05T08:37:59.622Z,97606.97
2023-11-05T08:40:02.180Z,97612.06
2023-11-05T08:42:06.039Z,97617.19
2023-11-05T08:44:11.104Z,97618.84
2023-11-05T08:46:14.728Z,97617.19
2023-11-05T08:48:18.483Z,97622.28
2023-11-05T08:50:25.585Z,97626.25
2023-11-05T08:52:28.684Z,97627.41
2023-11-05T08:54:32.370Z,97630.88
2023-11-05T08:56:36.228Z,97638.78
2023-11-05T08:58:39.821Z,97638.63
2023-11-05T09:00:44.765Z,97638.28
2023-11-05T09:02:48.342Z,97641.59
2023-11-05T09:04:52.445Z,97637.97
2023-11-05T09:06:56.283Z,97638.63
2023-11-05T09:09:00.337Z,97642.78
2023-11-05T09:11:04.247Z,97645.88
2023-11-05T09:13:08.019Z,97657.75
2023-11-05T09:15:13.176Z,97655.13
2023-11-05T09:17:18.976Z,97658.44
2023-11-05T09:19:22.760Z,97659.25
2023-11-05T09:21:26.617Z,97657.47
2023-11-05T09:23:30.549Z,97663.56
2023-11-05T09:25:34.469Z,97664.06
2023-11-05T09:27:38.778Z,97670.00
2023-11-05T09:29:42.557Z,97668.03
2023-11-05T09:31:49.358Z,97671.16
2023-11-05T09:33:54.713Z,97680.56
2023-11-05T09:35:59.242Z,97675.09
2023-11-05T09:38:04.293Z,97676.59
2023-11-05T09:40:09.483Z,97677.28
2023-11-05T09:42:17.419Z,97682.56
2023-11-05T09:44:23.334Z,97680.56
2023-11-05T09:46:27.582Z,97683.88
2023-11-05T09:48:31.441Z,97687.50
2023-11-05T09:50:38.556Z,97693.59
2023-11-05T09:52:43.852Z,97701.38
2023-11-05T09:54:48.441Z,97700.06
2023-11-05T09:56:52.759Z,97698.38
2023-11-05T09:58:55.570Z,97702.00
2023-11-05T10:00:59.335Z,97700.19
2023-11-05T10:03:05.380Z,97705.97
2023-11-05T10:05:09.626Z,97711.41
2023-11-05T10:07:14.828Z,97719.50
2023-11-05T10:09:17.998Z,97719.66
2023-11-05T10:11:21.702Z,97721.47
2023-11-05T10:13:27.891Z,97722.78
2023-11-05T10:15:31.506Z,97728.59
2023-11-05T10:17:35.280Z,97718.66
2023-11-05T10:19:39.067Z,97722.97
2023-11-05T10:21:44.292Z,97726.28
2023-11-05T10:23:56.032Z,97728.75
2023-11-05T10:25:59.553Z,97731.41
2023-11-05T10:28:03.404Z,97737.00
2023-11-05T10:30:09.474Z,97733.03
2023-11-05T10:32:13.486Z,97732.19
2023-11-05T10:34:18.862Z,97736.66
2023-11-05T10:36:23.504Z,97738.63
2023-11-05T10:38:28.482Z,97750.69
2023-11-05T10:40:32.731Z,97748.19
2023-11-05T10:42:38.930Z,97760.59
2023-11-05T10:44:45.589Z,97763.72
2023-11-05T10:46:53.218Z,97760.75
2023-11-05T10:48:57.777Z,97762.09
2023-11-05T10:51:03.321Z,97765.94
2023-11-05T10:53:09.333Z,97766.75
2023-11-05T10:55:14.275Z,97770.06
2023-11-05T10:57:44.815Z,97777.81
2023-11-05T10:59:48.632Z,97782.94
2023-11-05T11:01:52.257Z,97782.75
2023-11-05T11:04:01.591Z,97792.19
2023-11-05T11:06:08.564Z,97791.19
2023-11-05T11:08:11.672Z,97797.44
2023-11-05T11:10:22.873Z,97790.88
2023-11-05T11:12:31.390Z,97793.84
2023-11-05T11:14:40.144Z,97797.47
2023-11-05T11:16:45.772Z,97802.09
2023-11-05T11:18:51.342Z,97788.41
2023-11-05T11:20:56.697Z,97795.84
2023-11-05T11:23:04.275Z,97798.13
2023-11-05T11:25:09.252Z,97796.16
2023-11-05T11:27:17.691Z,97796.69
2023-11-05T11:29:21.687Z,97803.13
2023-11-05T11:31:28.276Z,97802.78
2023-11-05T11:33:32.607Z,97807.25
2023-11-05T11:35:40.107Z,97804.78
2023-11-05T11:37:43.790Z,97805.09
2023-11-05T11:39:49.760Z,97809.88
2023-11-05T11:41:52.656Z,97804.91
2023-11-05T11:43:56.407Z,97807.72
2023-11-05T11:45:59.242Z,97799.31
2023-11-05T11:48:08.670Z,97810.69
2023-11-05T11:50:13.391Z,97811.34
2023-11-05T11:52:16.984Z,97812.53
2023-11-05T11:54:20.030Z,97808.22
2023-11-05T11:56:23.786Z,97814.03
2023-11-05T11:58:28.760Z,97825.56
2023-11-05T12:00:32.391Z,97818.13
2023-11-05T12:02:36.273Z,97819.31
2023-11-05T12:04:41.623Z,97820.94
2023-11-05T12:06:47.936Z,97812.69
2023-11-05T12:08:53.805Z,97815.81
2023-11-05T12:10:57.433Z,97817.28
2023-11-05T12:13:02.248Z,97817.28
2023-11-05T12:15:13.280Z,97816.13
2023-11-05T12:17:17.385Z,97824.88
2023-11-05T12:19:20.961Z,97821.25
2023-11-05T12:21:26.721Z,97822.56
2023-11-05T12:23:30.014Z,97822.22
2023-11-05T12:25:35.619Z,97830.50
2023-11-05T12:27:48.100Z,97830.66
2023-11-05T12:29:53.991Z,97835.59
2023-11-05T12:31:57.757Z,97833.44
2023-11-05T12:34:01.816Z,97831.31
2023-11-05T12:36:07.994Z,97834.41
2023-11-05T12:38:13.101Z,97838.72
2023-11-05T12:40:17.476Z,97838.06
2023-11-05T12:42:21.643Z,97834.13
2023-11-05T12:44:25.478Z,97835.59
2023-11-05T12:46:29.422Z,97826.19
2023-11-05T12:48:34.047Z,97834.28
2023-11-05T12:50:38.161Z,97832.81
2023-11-05T12:52:42.639Z,97839.91
2023-11-05T12:54:48.278Z,97833.13
2023-11-05T12:56:52.291Z,97836.13
2023-11-05T12:58:55.849Z,97838.09
2023-11-05T13:00:59.714Z,97841.75
2023-11-05T13:03:03.446Z,97850.50
2023-11-05T13:05:07.885Z,97851.47
2023-11-05T13:07:11.797Z,97848.03
2023-11-05T13:09:18.293Z,97846.38
2023-11-05T13:11:25.250Z,97846.38
2023-11-05T13:13:29.028Z,97850.00
2023-11-05T13:15:32.935Z,97849.19
2023-11-05T13:17:36.802Z,97852.00
2023-11-05T13:19:40.465Z,97845.91
2023-11-05T13:21:46.278Z,97847.22
2023-11-05T13:23:50.047Z,97840.28
2023-11-05T13:25:52.702Z,97845.22
2023-11-05T13:27:58.295Z,97846.53
2023-11-05T13:30:01.776Z,97848.66
2023-11-05T13:32:05.941Z,97846.53
2023-11-05T13:34:09.579Z,97851.34
2023-11-05T13:36:12.058Z,97855.94
2023-11-05T13:38:15.522Z,97857.94
2023-11-05T13:40:19.019Z,97865.16
2023-11-05T13:42:22.989Z,97846.63
2023-11-05T13:44:28.846Z,97859.03
2023-11-05T13:46:32.504Z,97862.81
2023-11-05T13:48:34.930Z,97861.66
2023-11-05T13:50:38.678Z,97859.31
2023-11-05T13:52:42.129Z,97861.44
2023-11-05T13:54:46.229Z,97854.00
2023-11-05T13:56:50.668Z,97855.44
2023-11-05T13:58:54.199Z,97858.09
2023-11-05T14:00:58.922Z,97849.53
2023-11-05T14:03:02.457Z,97856.97
2023-11-05T14:05:06.622Z,97858.81
2023-11-05T14:07:11.065Z,97864.44
2023-11-05T14:09:13.612Z,97865.78
2023-11-05T14:11:18.494Z,97861.66
2023-11-05T14:13:21.796Z,97858.69
2023-11-05T14:15:25.234Z,97863.34
2023-11-05T14:17:29.000Z,97859.03
2023-11-05T14:19:32.734Z,97868.31
2023-11-05T14:21:36.174Z,97864.16
2023-11-05T14:23:39.617Z,97865.31
2023-11-05T14:25:43.370Z,97869.47
2023-11-05T14:27:46.802Z,97874.44
2023-11-05T14:29:50.145Z,97876.59
2023-11-05T14:31:53.527Z,97884.22
2023-11-05T14:33:59.187Z,97887.03
2023-11-05T14:36:04.009Z,97884.69
2023-11-05T14:38:07.334Z,97886.34
2023-11-05T14:40:13.076Z,97889.00
2023-11-05T14:42:15.568Z,97888.03
2023-11-05T14:44:19.469Z,97889.69
2023-11-05T14:46:22.837Z,97890.50
2023-11-05T14:48:27.661Z,97891.31
2023-11-05T14:50:34.790Z,97895.44
2023-11-05T14:52:39.601Z,97891.81
2023-11-05T14:54:43.318Z,97893.31
2023-11-05T14:56:46.148Z,97891.13
2023-11-05T14:58:49.696Z,97889.66
2023-11-05T15:00:53.104Z,97895.06
2023-11-05T15:02:56.495Z,97891.94
2023-11-05T15:05:00.291Z,97897.38
2023-11-05T15:07:05.598Z,97907.47
2023-11-05T15:09:09.493Z,97901.81
2023-11-05T15:11:12.805Z,97903.47
2023-11-05T15:13:16.298Z,97908.94
2023-11-05T15:15:19.639Z,97903.16
2023-11-05T15:17:22.976Z,97914.09
2023-11-05T15:19:26.391Z,97918.72
2023-11-05T15:21:30.496Z,97918.72
2023-11-05T15:23:35.474Z,97914.78
2023-11-05T15:25:38.584Z,97924.50
2023-11-05T15:27:41.985Z,97921.06
2023-11-05T15:29:44.607Z,97924.69
2023-11-05T15:31:47.960Z,97923.69
2023-11-05T15:33:54.994Z,97922.03
2023-11-05T15:35:58.493Z,97923.03
2023-11-05T15:38:00.888Z,97920.72
2023-11-05T15:40:06.962Z,97923.72
2023-11-05T15:42:10.360Z,97926.84
2023-11-05T15:44:13.711Z,97935.97
2023-11-05T15:46:17.085Z,97932.81
2023-11-05T15:48:20.439Z,97930.69
2023-11-05T15:50:25.528Z,97935.47
2023-11-05T15:52:30.255Z,97934.97
2023-11-05T15:54:33.675Z,97930.69
2023-11-05T15:56:38.649Z,97947.69
2023-11-05T15:58:41.737Z,97946.22
2023-11-05T16:00:45.037Z,97950.81
2023-11-05T16:02:48.531Z,97946.03
2023-11-05T16:04:52.057Z,97951.81
2023-11-05T16:06:55.454Z,97949.50
2023-11-05T16:08:58.926Z,97953.28
2023-11-05T16:11:03.424Z,97954.44
2023-11-05T16:13:08.195Z,97960.91
2023-11-05T16:15:14.134Z,97958.72
2023-11-05T16:17:17.875Z,97972.28
2023-11-05T16:19:21.381Z,97975.41
2023-11-05T16:21:24.851Z,97976.72
2023-11-05T16:23:28.202Z,97985.13
2023-11-05T16:25:31.496Z,97979.34
2023-11-05T16:27:34.971Z,97981.50
2023-11-05T16:29:41.949Z,97980.97
2023-11-05T16:31:45.434Z,97975.03
2023-11-05T16:33:49.700Z,97986.91
2023-11-05T16:35:52.182Z,97981.09
2023-11-05T16:37:55.831Z,97983.22
2023-11-05T16:39:59.514Z,97982.75
2023-11-05T16:42:02.828Z,97985.69
2023-11-05T16:44:05.955Z,97990.47
2023-11-05T16:46:10.948Z,97989.13
2023-11-05T16:48:14.388Z,97985.31
2023-11-05T16:50:18.458Z,97988.41
2023-11-05T16:52:22.289Z,97987.94
2023-11-05T16:54:26.175Z,97994.50
2023-11-05T16:56:31.257Z,97990.53
2023-11-05T16:58:34.873Z,97997.09
2023-11-05T17:00:38.794Z,98001.69
2023-11-05T17:02:43.894Z,98008.25
2023-11-05T17:04:48.240Z,98005.94
2023-11-05T17:06:51.962Z,98008.88
2023-11-05T17:08:55.422Z,98014.44
2023-11-05T17:10:58.839Z,98009.50
2023-11-05T17:13:02.607Z,98017.72
2023-11-05T17:15:07.558Z,98018.00
2023-11-05T17:17:11.147Z,98010.41
2023-11-05T17:19:16.323Z,98009.75
2023-11-05T17:21:20.343Z,98014.34
2023-11-05T17:23:24.506Z,98008.41
2023-11-05T17:25:28.151Z,98015.63
2023-11-05T17:27:31.926Z,98019.25
2023-11-05T17:29:35.633Z,98017.78
2023-11-05T17:31:39.094Z,98015.25
2023-11-05T17:33:42.729Z,98023.34
2023-11-05T17:35:47.815Z,98028.78
2023-11-05T17:37:53.106Z,98035.00
2023-11-05T17:39:58.189Z,98036.84
2023-11-05T17:42:02.041Z,98037.81
2023-11-05T17:44:06.677Z,98037.97
2023-11-05T17:46:10.246Z,98047.72
2023-11-05T17:48:14.268Z,98040.59
2023-11-05T17:50:19.601Z,98041.59
2023-11-05T17:52:25.651Z,98052.13
2023-11-05T17:54:29.147Z,98051.31
2023-11-05T17:56:33.337Z,98050.50
2023-11-05T17:58:39.307Z,98050.50
2023-11-05T18:00:42.842Z,98056.75
2023-11-05T18:02:46.738Z,98055.09
2023-11-05T18:04:50.660Z,98055.09
2023-11-05T18:06:54.388Z,98063.00
2023-11-05T18:08:59.467Z,98066.59
2023-11-05T18:11:05.543Z,98069.25
2023-11-05T18:13:09.035Z,98074.53
2023-11-05T18:15:12.737Z,98079.81
2023-11-05T18:17:15.614Z,98079.81
2023-11-05T18:19:19.931Z,98081.47
2023-11-05T18:21:24.423Z,98084.78
2023-11-05T18:23:27.895Z,98088.63
2023-11-05T18:25:32.934Z,98086.66
2023-11-05T18:27:36.458Z,98085.53
2023-11-05T18:29:40.072Z,98094.28
2023-11-05T18:31:43.618Z,98102.06
2023-11-05T18:33:47.582Z,98105.66
2023-11-05T18:35:51.095Z,98106.63
2023-11-05T18:37:54.426Z,98110.25
2023-11-05T18:39:58.927Z,98108.59
2023-11-05T18:42:03.635Z,98116.69
2023-11-05T18:44:08.378Z,98114.03
2023-11-05T18:46:18.107Z,98116.53
2023-11-05T18:48:22.293Z,98117.50
2023-11-05T18:50:25.892Z,98118.31
2023-11-05T18:52:29.595Z,98120.81
2023-11-05T18:54:33.020Z,98126.94
2023-11-05T18:56:36.668Z,98127.75
2023-11-05T18:58:41.565Z,98135.00
2023-11-05T19:00:45.149Z,98116.69
2023-11-05T19:02:50.629Z,98116.00
2023-11-05T19:04:55.069Z,98131.00
2023-11-05T19:06:59.295Z,98132.78
2023-11-05T19:09:03.044Z,98132.13
2023-11-05T19:11:06.686Z,98138.38
2023-11-05T19:13:10.081Z,98141.16
2023-11-05T19:15:17.342Z,98153.38
2023-11-05T19:17:21.174Z,98156.03
2023-11-05T19:19:23.906Z,98158.50
2023-11-05T19:21:27.336Z,98166.28
2023-11-05T19:23:31.069Z,98166.94
2023-11-05T19:25:33.709Z,98172.91
2023-11-05T19:27:37.094Z,98168.59
2023-11-05T19:29:42.947Z,98180.13
2023-11-05T19:31:50.077Z,98183.06
2023-11-05T19:33:54.107Z,98188.34
2023-11-05T19:35:56.485Z,98187.84
2023-11-05T19:37:59.924Z,98187.97
2023-11-05T19:40:02.324Z,98192.56
2023-11-05T19:42:06.524Z,98199.50
2023-11-05T19:44:10.190Z,98203.13
2023-11-05T19:46:18.373Z,98200.47
2023-11-05T19:48:23.290Z,98211.19
2023-11-05T19:50:27.536Z,98205.06
2023-11-05T19:52:31.003Z,98208.69
2023-11-05T19:54:34.578Z,98205.22
2023-11-05T19:56:38.090Z,98204.69
2023-11-05T19:58:41.583Z,98205.66
2023-11-05T20:00:44.934Z,98218.16
2023-11-05T20:02:47.490Z,98221.78
2023-11-05T20:04:52.576Z,98219.16
2023-11-05T20:06:57.170Z,98225.41
2023-11-05T20:09:01.121Z,98230.81
2023-11-05T20:11:05.040Z,98229.00
2023-11-05T20:13:08.415Z,98240.53
2023-11-05T20:15:12.167Z,98234.59
2023-11-05T20:17:16.349Z,98239.31
2023-11-05T20:19:20.118Z,98249.03
2023-11-05T20:21:24.919Z,98242.25
2023-11-05T20:23:28.929Z,98247.66
2023-11-05T20:25:32.458Z,98248.78
2023-11-05T20:27:35.108Z,98247.97
2023-11-05T20:29:40.341Z,98253.50
2023-11-05T20:31:43.131Z,98247.56
2023-11-05T20:33:46.982Z,98260.91
2023-11-05T20:35:52.593Z,98263.66
2023-11-05T20:37:57.491Z,98256.88
2023-11-05T20:40:02.556Z,98256.03
2023-11-05T20:42:06.309Z,98263.28
2023-11-05T20:44:09.953Z,98267.69
2023-11-05T20:46:13.291Z,98268.81
2023-11-05T20:48:17.024Z,98272.44
2023-11-05T20:50:21.428Z,98274.38
2023-11-05T20:52:24.952Z,98271.88
2023-11-05T20:54:33.479Z,98277.97
2023-11-05T20:56:38.759Z,98279.94
2023-11-05T20:58:42.184Z,98280.09
2023-11-05T21:00:45.919Z,98281.88
2023-11-05T21:02:49.596Z,98288.97
2023-11-05T21:04:54.525Z,98286.47
2023-11-05T21:06:58.437Z,98291.75
2023-11-05T21:09:05.086Z,98298.00
2023-11-05T21:11:11.053Z,98294.69
2023-11-05T21:13:15.574Z,98294.81
2023-11-05T21:15:20.799Z,98307.16
2023-11-05T21:17:27.798Z,98300.34
2023-11-05T21:19:31.702Z,98300.50
2023-11-05T21:21:35.418Z,98314.63
2023-11-05T21:23:39.390Z,98315.50
2023-11-05T21:25:43.372Z,98315.63
2023-11-05T21:27:48.512Z,98331.44
2023-11-05T21:29:52.472Z,98320.19
2023-11-05T21:31:56.674Z,98316.75
2023-11-05T21:34:00.387Z,98325.63
2023-11-05T21:36:04.631Z,98323.94
2023-11-05T21:38:08.822Z,98331.03
2023-11-05T21:40:14.224Z,98322.28
2023-11-05T21:42:18.701Z,98326.72
2023-11-05T21:44:24.600Z,98325.06
2023-11-05T21:46:29.301Z,98333.97
2023-11-05T21:48:34.414Z,98324.38
2023-11-05T21:50:43.621Z,98331.31
2023-11-05T21:52:47.848Z,98328.81
2023-11-05T21:54:50.553Z,98323.53
2023-11-05T21:56:54.263Z,98322.72
2023-11-05T21:58:58.062Z,98312.16
2023-11-05T22:01:03.495Z,98313.97
2023-11-05T22:03:07.418Z,98327.97
2023-11-05T22:05:11.953Z,98331.56
2023-11-05T22:07:16.006Z,98334.22
2023-11-05T22:09:19.574Z,98336.03
2023-11-05T22:11:23.338Z,98336.16
2023-11-05T22:13:27.571Z,98339.78
2023-11-05T22:15:31.330Z,98346.84
2023-11-05T22:17:36.524Z,98337.13
2023-11-05T22:19:40.232Z,98346.72
2023-11-05T22:21:45.103Z,98345.03
2023-11-05T22:23:48.563Z,98337.28
2023-11-05T22:25:52.208Z,98341.84
2023-11-05T22:27:56.041Z,98348.09
2023-11-05T22:30:00.146Z,98344.63
2023-11-05T22:32:03.998Z,98347.25
2023-11-05T22:34:09.230Z,98344.91
2023-11-05T22:36:13.098Z,98344.09
2023-11-05T22:38:16.688Z,98349.50
2023-11-05T22:40:23.036Z,98356.53
2023-11-05T22:42:26.809Z,98353.09
2023-11-05T22:44:30.715Z,98359.31
2023-11-05T22:46:38.083Z,98361.97
2023-11-05T22:48:41.074Z,98363.78
2023-11-05T22:50:46.133Z,98361.28
2023-11-05T22:52:52.148Z,98354.34
2023-11-05T22:54:56.379Z,98355.31
2023-11-05T22:57:00.022Z,98364.88
2023-11-05T22:59:04.147Z,98365.03
2023-11-05T23:01:08.186Z,98358.22
2023-11-05T23:03:13.505Z,98372.22
2023-11-05T23:05:20.266Z,98367.09
2023-11-05T23:07:26.135Z,98371.53
2023-11-05T23:09:30.047Z,98373.31
2023-11-05T23:11:36.386Z,98377.91
2023-11-05T23:13:41.835Z,98368.34
2023-11-05T23:15:45.693Z,98379.81
2023-11-05T23:17:49.747Z,98382.47
2023-11-05T23:19:54.803Z,98374.56
2023-11-05T23:21:59.430Z,98380.69
2023-11-05T23:24:05.355Z,98384.13
2023-11-05T23:26:10.919Z,98393.72
2023-11-05T23:28:16.634Z,98368.19
2023-11-05T23:30:20.317Z,98374.41
2023-11-05T23:32:22.965Z,98388.44
2023-11-05T23:34:27.165Z,98386.75
2023-11-05T23:36:31.011Z,98382.47
2023-11-05T23:38:35.257Z,98395.63
2023-11-05T23:40:42.786Z,98389.53
2023-11-05T23:42:46.973Z,98405.34
2023-11-05T23:44:50.605Z,98400.91
2023-11-05T23:46:54.531Z,98407.00
2023-11-05T23:48:58.167Z,98415.72
2023-11-05T23:51:01.979Z,98412.13
2023-11-05T23:53:05.956Z,98411.16
2023-11-05T23:55:09.793Z,98415.47
2023-11-05T23:57:15.393Z,98421.44
2023-11-05T23:59:19.181Z,98422.13
